createdAt,value
2023-03-28T00:00:54.707Z,7.97
2023-03-28T00:03:27.514Z,8.18
2023-03-28T00:06:01.445Z,8.50
2023-03-28T00:08:32.754Z,6.90
2023-03-28T00:11:09.596Z,12.95
2023-03-28T00:13:43.249Z,6.63
2023-03-28T00:16:33.976Z,11.50
2023-03-28T00:19:10.631Z,7.55
2023-03-28T00:21:47.195Z,6.57
2023-03-28T00:24:24.056Z,5.50
2023-03-28T00:26:55.579Z,9.35
2023-03-28T00:29:30.322Z,8.30
2023-03-28T00:32:03.591Z,5.45
2023-03-28T00:34:34.503Z,5.43
2023-03-28T00:37:05.598Z,6.40
2023-03-28T00:39:36.670Z,6.72
2023-03-28T00:42:20.384Z,8.63
2023-03-28T00:44:55.755Z,8.40
2023-03-28T00:47:40.981Z,10.23
2023-03-28T00:50:51.338Z,8.27
2023-03-28T00:53:28.602Z,7.35
2023-03-28T00:56:05.093Z,7.05
2023-03-28T00:58:42.412Z,6.22
2023-03-28T01:01:18.513Z,9.43
2023-03-28T01:04:20.706Z,6.18
2023-03-28T01:06:57.123Z,5.00
2023-03-28T01:09:28.798Z,6.28
2023-03-28T01:12:02.008Z,10.10
2023-03-28T01:14:33.995Z,7.70
2023-03-28T01:17:10.986Z,7.50
2023-03-28T01:20:01.562Z,8.65
2023-03-28T01:23:07.792Z,8.43
2023-03-28T01:26:13.701Z,9.27
2023-03-28T01:29:23.898Z,5.07
2023-03-28T01:32:32.088Z,8.82
2023-03-28T01:35:36.858Z,8.40
2023-03-28T01:38:16.037Z,10.55
2023-03-28T01:40:53.557Z,5.88
2023-03-28T01:43:38.730Z,7.20
2023-03-28T01:46:18.920Z,8.70
2023-03-28T01:49:11.389Z,9.52
2023-03-28T01:51:57.215Z,10.48
2023-03-28T01:54:35.600Z,8.50
2023-03-28T01:57:13.899Z,7.97
2023-03-28T01:59:48.051Z,14.48
2023-03-28T02:02:30.242Z,6.70
2023-03-28T02:05:04.411Z,10.10
2023-03-28T02:07:36.778Z,8.95
2023-03-28T02:10:12.776Z,7.97
2023-03-28T02:12:48.815Z,10.10
2023-03-28T02:15:22.407Z,10.63
2023-03-28T02:18:00.691Z,8.98
2023-03-28T02:20:35.348Z,8.55
2023-03-28T02:23:11.722Z,10.82
2023-03-28T02:25:45.189Z,8.50
2023-03-28T02:28:17.428Z,10.88
2023-03-28T02:30:48.798Z,7.50
2023-03-28T02:33:41.997Z,6.93
2023-03-28T02:36:33.636Z,8.40
2023-03-28T02:39:20.992Z,7.68
2023-03-28T02:42:09.931Z,8.25
2023-03-28T02:44:55.899Z,4.05
2023-03-28T02:47:36.863Z,6.97
2023-03-28T02:50:21.396Z,16.88
2023-03-28T02:52:58.733Z,10.63
2023-03-28T02:56:07.879Z,13.20
2023-03-28T02:58:48.848Z,8.40
2023-03-28T03:01:19.833Z,9.20
2023-03-28T03:03:51.088Z,7.80
2023-03-28T03:06:22.110Z,13.68
2023-03-28T03:08:53.061Z,10.75
2023-03-28T03:11:25.177Z,9.65
2023-03-28T03:14:00.420Z,12.85
2023-03-28T03:16:31.806Z,12.18
2023-03-28T03:19:02.734Z,14.43
2023-03-28T03:21:35.316Z,14.05
2023-03-28T03:24:06.714Z,9.00
2023-03-28T03:26:43.324Z,12.63
2023-03-28T03:29:17.810Z,10.50
2023-03-28T03:31:49.061Z,13.35
2023-03-28T03:34:27.084Z,9.95
2023-03-28T03:37:04.522Z,11.98
2023-03-28T03:39:39.130Z,10.88
2023-03-28T03:42:10.013Z,14.98
2023-03-28T03:44:43.497Z,12.27
2023-03-28T03:47:15.144Z,14.18
2023-03-28T03:49:46.298Z,9.98
2023-03-28T03:52:17.237Z,10.27
2023-03-28T03:54:48.071Z,11.63
2023-03-28T03:57:20.562Z,14.73
2023-03-28T03:59:54.172Z,14.98
2023-03-28T04:02:25.006Z,13.32
2023-03-28T04:05:00.161Z,15.07
2023-03-28T04:07:31.123Z,16.80
2023-03-28T04:10:02.402Z,11.20
2023-03-28T04:12:33.218Z,11.75
2023-03-28T04:15:07.478Z,12.77
2023-03-28T04:17:41.485Z,14.15
2023-03-28T04:20:16.233Z,12.23
2023-03-28T04:22:48.446Z,20.73
2023-03-28T04:25:19.511Z,14.43
2023-03-28T04:28:04.037Z,13.50
2023-03-28T04:30:53.461Z,13.52
2023-03-28T04:33:26.643Z,13.63
2023-03-28T04:36:00.794Z,13.65
2023-03-28T04:38:36.489Z,11.43
2023-03-28T04:41:08.457Z,14.63
2023-03-28T04:43:39.418Z,13.73
2023-03-28T04:46:14.581Z,14.27
2023-03-28T04:48:48.840Z,12.50
2023-03-28T04:51:39.708Z,18.23
2023-03-28T04:54:10.589Z,13.68
2023-03-28T04:56:41.750Z,9.20
2023-03-28T04:59:14.815Z,14.13
2023-03-28T05:01:54.370Z,14.02
2023-03-28T05:04:26.792Z,11.50
2023-03-28T05:06:57.836Z,9.73
2023-03-28T05:09:31.944Z,14.75
2023-03-28T05:12:08.476Z,14.60
2023-03-28T05:14:43.085Z,11.20
2023-03-28T05:17:18.433Z,9.07
2023-03-28T05:19:49.392Z,12.07
2023-03-28T05:22:23.589Z,18.77
2023-03-28T05:24:54.437Z,11.60
2023-03-28T05:27:25.682Z,10.65
2023-03-28T05:29:59.435Z,11.38
2023-03-28T05:32:33.126Z,14.00
2023-03-28T05:35:04.487Z,16.88
2023-03-28T05:37:37.529Z,11.27
2023-03-28T05:40:11.801Z,12.85
2023-03-28T05:42:43.045Z,15.20
2023-03-28T05:45:14.801Z,13.75
2023-03-28T05:47:57.237Z,14.75
2023-03-28T05:50:29.190Z,10.20
2023-03-28T05:53:03.418Z,8.05
2023-03-28T05:55:35.641Z,12.35
2023-03-28T05:58:07.886Z,12.40
2023-03-28T06:00:48.878Z,12.07
2023-03-28T06:03:22.572Z,17.63
2023-03-28T06:06:13.701Z,14.90
2023-03-28T06:08:44.750Z,13.68
2023-03-28T06:11:17.011Z,8.85
2023-03-28T06:13:49.453Z,12.65
2023-03-28T06:16:30.078Z,10.30
2023-03-28T06:19:17.203Z,12.60
2023-03-28T06:21:49.321Z,13.13
2023-03-28T06:24:22.919Z,9.68
2023-03-28T06:26:54.103Z,15.98
2023-03-28T06:29:24.922Z,12.47
2023-03-28T06:31:55.846Z,11.68
2023-03-28T06:34:29.311Z,17.70
2023-03-28T06:37:01.892Z,13.00
2023-03-28T06:39:32.940Z,9.57
2023-03-28T06:42:03.833Z,12.33
2023-03-28T06:44:34.708Z,9.57
2023-03-28T06:47:05.963Z,13.43
2023-03-28T06:49:39.462Z,13.47
2023-03-28T06:52:19.768Z,11.80
2023-03-28T06:54:51.440Z,15.97
2023-03-28T06:57:22.539Z,15.70
2023-03-28T07:00:16.932Z,11.70
2023-03-28T07:02:47.934Z,17.40
2023-03-28T07:05:33.812Z,14.50
2023-03-28T07:08:05.118Z,13.83
2023-03-28T07:10:39.142Z,12.83
2023-03-28T07:13:11.173Z,11.83
2023-03-28T07:15:42.240Z,12.90
2023-03-28T07:18:13.160Z,13.47
2023-03-28T07:20:52.003Z,14.07
2023-03-28T07:23:38.343Z,9.90
2023-03-28T07:26:11.194Z,11.40
2023-03-28T07:28:42.221Z,9.60
2023-03-28T07:31:13.969Z,10.40
2023-03-28T07:33:51.973Z,16.90
2023-03-28T07:36:25.576Z,13.83
2023-03-28T07:38:56.801Z,15.93
2023-03-28T07:41:27.854Z,14.37
2023-03-28T07:43:58.957Z,10.20
2023-03-28T07:46:33.429Z,9.03
2023-03-28T07:49:07.025Z,11.63
2023-03-28T07:51:45.614Z,14.00
2023-03-28T07:54:18.060Z,9.97
2023-03-28T07:56:49.608Z,9.50
2023-03-28T07:59:21.168Z,8.50
2023-03-28T08:01:52.265Z,14.57
2023-03-28T08:04:28.247Z,8.77
2023-03-28T08:07:02.469Z,12.73
2023-03-28T08:09:33.931Z,9.70
2023-03-28T08:12:07.692Z,10.37
2023-03-28T08:14:38.598Z,11.80
2023-03-28T08:17:52.979Z,8.80
2023-03-28T08:20:44.009Z,10.83
2023-03-28T08:23:22.617Z,6.97
2023-03-28T08:26:04.935Z,11.33
2023-03-28T08:28:37.398Z,9.80
2023-03-28T08:31:14.416Z,7.43
2023-03-28T08:33:48.834Z,7.53
2023-03-28T08:36:20.114Z,7.03
2023-03-28T08:39:00.648Z,8.30
2023-03-28T08:41:54.100Z,11.43
2023-03-28T08:44:47.261Z,10.53
2023-03-28T08:47:27.062Z,6.67
2023-03-28T08:50:02.646Z,7.03
2023-03-28T08:52:35.772Z,4.83
2023-03-28T08:55:25.388Z,6.70
2023-03-28T08:58:00.955Z,9.23
2023-03-28T09:00:34.477Z,9.00
2023-03-28T09:03:12.468Z,6.77
2023-03-28T09:05:50.052Z,6.13
2023-03-28T09:08:52.572Z,7.30
2023-03-28T09:11:36.368Z,6.87
2023-03-28T09:14:24.654Z,4.13
2023-03-28T09:17:07.317Z,8.03
2023-03-28T09:20:00.440Z,10.40
2023-03-28T09:22:40.724Z,9.80
2023-03-28T09:25:37.786Z,12.17
2023-03-28T09:28:21.703Z,6.97
2023-03-28T09:30:56.977Z,7.27
2023-03-28T09:33:31.512Z,8.80
2023-03-28T09:36:04.363Z,9.23
2023-03-28T09:38:39.363Z,5.70
2023-03-28T09:41:21.190Z,8.00
2023-03-28T09:44:00.101Z,10.70
2023-03-28T09:46:35.860Z,8.27
2023-03-28T09:49:07.366Z,5.03
2023-03-28T09:51:38.643Z,6.63
2023-03-28T09:54:13.888Z,9.53
2023-03-28T09:56:47.239Z,7.50
2023-03-28T09:59:29.124Z,6.77
2023-03-28T10:02:04.528Z,5.47
2023-03-28T10:04:38.470Z,7.93
2023-03-28T10:07:34.683Z,5.70
2023-03-28T10:10:22.570Z,7.50
2023-03-28T10:13:09.467Z,5.63
2023-03-28T10:15:50.378Z,6.30
2023-03-28T10:18:24.303Z,3.83
2023-03-28T10:20:56.410Z,4.03
2023-03-28T10:23:28.275Z,3.10
2023-03-28T10:26:05.258Z,3.67
2023-03-28T10:28:38.556Z,5.50
2023-03-28T10:31:29.523Z,7.73
2023-03-28T10:34:02.815Z,3.93
2023-03-28T10:36:37.635Z,3.47
2023-03-28T10:39:25.008Z,5.00
2023-03-28T10:41:56.456Z,5.80
2023-03-28T10:44:31.391Z,2.03
2023-03-28T10:47:07.780Z,6.33
2023-03-28T10:49:47.627Z,5.43
2023-03-28T10:52:30.126Z,3.00
2023-03-28T10:55:18.439Z,2.50
2023-03-28T10:58:14.095Z,8.40
2023-03-28T11:00:49.064Z,5.70
2023-03-28T11:03:59.161Z,4.27
2023-03-28T11:06:37.965Z,7.53
2023-03-28T11:09:19.141Z,2.93
2023-03-28T11:12:01.864Z,4.20
2023-03-28T11:15:00.009Z,5.80
2023-03-28T11:17:44.492Z,6.37
2023-03-28T11:20:40.460Z,6.10
2023-03-28T11:23:25.512Z,6.10
2023-03-28T11:29:36.584Z,5.60
2023-03-28T11:32:23.196Z,3.50
2023-03-28T11:35:04.510Z,3.70
2023-03-28T11:37:43.137Z,5.50
2023-03-28T11:40:24.437Z,6.30
2023-03-28T11:43:00.331Z,6.33
2023-03-28T11:45:50.332Z,3.70
2023-03-28T11:48:29.102Z,6.13
2023-03-28T11:51:07.347Z,3.63
2023-03-28T11:53:47.541Z,5.60
2023-03-28T11:56:42.795Z,1.80
2023-03-28T11:59:18.615Z,6.07
2023-03-28T12:01:55.345Z,5.00
2023-03-28T12:04:30.848Z,5.90
2023-03-28T12:07:14.362Z,3.30
2023-03-28T12:10:00.415Z,4.60
2023-03-28T12:12:38.980Z,3.60
2023-03-28T12:15:16.701Z,3.90
2023-03-28T12:17:51.025Z,5.20
2023-03-28T12:20:43.553Z,6.80
2023-03-28T12:23:40.735Z,2.87
2023-03-28T12:26:24.571Z,3.47
2023-03-28T12:28:58.318Z,3.90
2023-03-28T12:31:34.518Z,7.30
2023-03-28T12:34:12.822Z,6.93
2023-03-28T12:36:51.213Z,4.53
2023-03-28T12:39:35.520Z,3.93
2023-03-28T12:42:13.214Z,4.37
2023-03-28T12:45:41.432Z,8.07
2023-03-28T12:48:23.620Z,3.13
2023-03-28T12:50:59.380Z,5.17
2023-03-28T12:53:35.849Z,3.90
2023-03-28T12:56:09.017Z,3.50
2023-03-28T12:58:43.260Z,4.70
2023-03-28T13:01:43.382Z,3.60
2023-03-28T13:04:26.953Z,4.00
2023-03-28T13:07:18.271Z,4.20
2023-03-28T13:10:02.463Z,7.53
2023-03-28T13:12:50.595Z,5.73
2023-03-28T13:15:34.316Z,5.10
2023-03-28T13:18:29.303Z,3.63
2023-03-28T13:21:04.986Z,5.60
2023-03-28T13:23:51.501Z,4.00
2023-03-28T13:26:24.888Z,6.03
2023-03-28T13:29:02.590Z,4.17
2023-03-28T13:31:36.437Z,5.20
2023-03-28T13:34:08.051Z,4.77
2023-03-28T13:36:39.699Z,4.03
2023-03-28T13:39:28.745Z,2.60
2023-03-28T13:42:03.912Z,3.83
2023-03-28T13:44:42.017Z,1.73
2023-03-28T13:47:38.552Z,4.80
2023-03-28T13:50:24.768Z,3.77
2023-03-28T13:52:56.078Z,9.27
2023-03-28T13:55:28.491Z,3.97
2023-03-28T13:58:04.491Z,1.90
2023-03-28T14:00:35.468Z,2.80
2023-03-28T14:03:16.480Z,4.20
2023-03-28T14:05:48.848Z,2.80
2023-03-28T14:08:25.778Z,2.50
2023-03-28T14:10:57.082Z,4.33
2023-03-28T14:13:31.259Z,5.10
2023-03-28T14:16:02.316Z,2.87
2023-03-28T14:18:39.831Z,3.70
2023-03-28T14:21:11.130Z,2.57
2023-03-28T14:23:44.222Z,2.67
2023-03-28T14:26:21.476Z,3.00
2023-03-28T14:28:54.588Z,2.13
2023-03-28T14:31:34.435Z,5.17
2023-03-28T14:34:19.046Z,9.13
2023-03-28T14:37:06.846Z,3.03
2023-03-28T14:39:41.828Z,4.00
2023-03-28T14:42:17.946Z,2.83
2023-03-28T14:44:52.908Z,1.43
2023-03-28T14:47:29.625Z,3.53
2023-03-28T14:50:04.774Z,3.23
2023-03-28T14:52:41.095Z,3.07
2023-03-28T14:55:18.958Z,4.20
2023-03-28T14:57:51.857Z,1.97
2023-03-28T15:00:26.553Z,1.80
2023-03-28T15:02:58.479Z,3.80
2023-03-28T15:05:32.225Z,4.97
2023-03-28T15:08:04.991Z,2.53
2023-03-28T15:10:36.484Z,4.00
2023-03-28T15:13:12.354Z,1.93
2023-03-28T15:15:47.153Z,5.20
2023-03-28T15:18:25.548Z,3.00
2023-03-28T15:21:03.766Z,2.40
2023-03-28T15:23:37.933Z,1.77
2023-03-28T15:26:13.047Z,5.23
2023-03-28T15:28:43.958Z,2.10
2023-03-28T15:31:15.432Z,2.10
2023-03-28T15:33:49.650Z,3.33
2023-03-28T15:36:26.814Z,4.47
2023-03-28T15:39:03.448Z,3.20
2023-03-28T15:41:46.135Z,4.10
2023-03-28T15:44:29.930Z,4.03
2023-03-28T15:47:07.678Z,2.43
2023-03-28T15:49:39.959Z,3.07
2023-03-28T15:52:20.262Z,5.17
2023-03-28T15:54:57.089Z,5.13
2023-03-28T15:57:31.032Z,3.30
2023-03-28T16:00:02.640Z,4.57
2023-03-28T16:02:37.402Z,3.27
2023-03-28T16:05:32.033Z,3.90
2023-03-28T16:08:05.793Z,3.60
2023-03-28T16:10:37.773Z,4.40
2023-03-28T16:13:14.464Z,5.30
2023-03-28T16:15:45.773Z,3.20
2023-03-28T16:18:17.050Z,3.70
2023-03-28T16:20:48.194Z,3.53
2023-03-28T16:23:23.999Z,3.80
2023-03-28T16:25:56.194Z,3.73
2023-03-28T16:28:27.565Z,5.43
2023-03-28T16:30:58.536Z,3.13
2023-03-28T16:33:29.719Z,2.57
2023-03-28T16:36:01.275Z,3.93
2023-03-28T16:38:38.607Z,3.30
2023-03-28T16:41:10.388Z,4.33
2023-03-28T16:43:41.378Z,2.97
2023-03-28T16:46:13.841Z,3.13
2023-03-28T16:48:45.272Z,5.33
2023-03-28T16:51:16.241Z,4.40
2023-03-28T16:53:49.814Z,5.57
2023-03-28T16:56:21.009Z,3.27
2023-03-28T16:58:52.096Z,3.87
2023-03-28T17:01:23.333Z,7.03
2023-03-28T17:03:55.784Z,5.27
2023-03-28T17:06:27.777Z,3.33
2023-03-28T17:09:04.741Z,3.60
2023-03-28T17:11:40.279Z,2.37
2023-03-28T17:14:11.754Z,4.23
2023-03-28T17:16:45.235Z,4.30
2023-03-28T17:19:23.189Z,3.10
2023-03-28T17:21:54.266Z,2.87
2023-03-28T17:24:28.127Z,3.30
2023-03-28T17:26:59.273Z,2.50
2023-03-28T17:29:30.310Z,2.50
2023-03-28T17:32:02.981Z,3.17
2023-03-28T17:34:35.969Z,8.90
2023-03-28T17:37:07.061Z,2.90
2023-03-28T17:39:42.033Z,4.60
2023-03-28T17:42:12.965Z,2.10
2023-03-28T17:44:43.896Z,3.67
2023-03-28T17:47:14.996Z,4.67
2023-03-28T17:49:46.198Z,2.87
2023-03-28T17:52:17.832Z,4.80
2023-03-28T17:54:51.699Z,3.53
2023-03-28T17:57:22.700Z,2.10
2023-03-28T17:59:57.036Z,4.80
2023-03-28T18:02:28.617Z,2.90
2023-03-28T18:04:59.537Z,4.33
2023-03-28T18:07:35.046Z,4.47
2023-03-28T18:10:09.675Z,5.13
2023-03-28T18:12:40.681Z,5.17
2023-03-28T18:15:13.150Z,5.90
2023-03-28T18:17:45.204Z,7.23
2023-03-28T18:20:16.210Z,10.60
2023-03-28T18:22:47.167Z,7.60
2023-03-28T18:25:21.132Z,7.20
2023-03-28T18:27:52.656Z,5.70
2023-03-28T18:30:23.725Z,9.03
2023-03-28T18:32:55.677Z,6.80
2023-03-28T18:35:27.186Z,7.83
2023-03-28T18:37:59.667Z,5.40
2023-03-28T18:40:34.792Z,10.10
2023-03-28T18:43:06.302Z,12.43
2023-03-28T18:45:37.856Z,5.83
2023-03-28T18:48:09.674Z,7.10
2023-03-28T18:50:42.315Z,4.67
2023-03-28T18:53:13.487Z,4.43
2023-03-28T18:55:47.177Z,4.30
2023-03-28T18:58:18.789Z,5.37
2023-03-28T19:01:00.558Z,2.93
2023-03-28T19:03:33.487Z,3.43
2023-03-28T19:06:05.509Z,4.67
2023-03-28T19:08:37.160Z,3.00
2023-03-28T19:11:13.742Z,5.43
2023-03-28T19:13:45.513Z,3.53
2023-03-28T19:16:19.378Z,4.13
2023-03-28T19:18:50.978Z,3.10
2023-03-28T19:21:23.789Z,3.37
2023-03-28T19:23:55.108Z,4.03
2023-03-28T19:26:28.888Z,5.60
2023-03-28T19:28:59.924Z,4.67
2023-03-28T19:31:31.440Z,4.10
2023-03-28T19:34:03.269Z,5.43
2023-03-28T19:36:34.307Z,4.57
2023-03-28T19:39:05.319Z,4.70
2023-03-28T19:41:42.585Z,6.60
2023-03-28T19:44:14.219Z,21.70
2023-03-28T19:46:47.288Z,16.73
2023-03-28T19:49:19.336Z,19.80
2023-03-28T19:51:50.268Z,9.90
2023-03-28T19:54:21.759Z,9.67
2023-03-28T19:56:55.601Z,4.93
2023-03-28T19:59:26.620Z,4.17
2023-03-28T20:02:00.101Z,6.17
2023-03-28T20:04:31.348Z,5.97
2023-03-28T20:07:02.873Z,4.33
2023-03-28T20:09:36.596Z,6.90
2023-03-28T20:12:10.489Z,5.90
2023-03-28T20:14:42.749Z,5.00
2023-03-28T20:17:14.506Z,6.07
2023-03-28T20:19:45.530Z,5.50
2023-03-28T20:22:18.396Z,4.20
2023-03-28T20:24:50.752Z,8.83
2023-03-28T20:27:25.414Z,8.27
2023-03-28T20:29:56.644Z,8.73
2023-03-28T20:32:37.209Z,8.37
2023-03-28T20:35:09.456Z,6.20
2023-03-28T20:37:40.801Z,3.80
2023-03-28T20:40:13.308Z,4.67
2023-03-28T20:42:46.902Z,6.27
2023-03-28T20:45:22.369Z,5.70
2023-03-28T20:47:58.970Z,4.73
2023-03-28T20:50:36.340Z,3.73
2023-03-28T20:53:10.240Z,4.83
2023-03-28T20:55:41.203Z,8.23
2023-03-28T20:58:14.839Z,3.73
2023-03-28T21:00:47.737Z,6.50
2023-03-28T21:03:18.743Z,11.10
2023-03-28T21:05:50.306Z,4.40
2023-03-28T21:08:21.674Z,6.60
2023-03-28T21:10:54.872Z,8.10
2023-03-28T21:13:28.388Z,8.13
2023-03-28T21:15:59.564Z,5.33
2023-03-28T21:18:30.542Z,4.07
2023-03-28T21:21:01.856Z,5.90
2023-03-28T21:23:37.344Z,3.53
2023-03-28T21:26:09.774Z,4.13
2023-03-28T21:28:43.639Z,3.13
2023-03-28T21:31:17.138Z,5.00
2023-03-28T21:33:48.032Z,4.80
2023-03-28T21:36:20.552Z,3.80
2023-03-28T21:38:51.916Z,6.77
2023-03-28T21:41:22.955Z,6.80
2023-03-28T21:43:56.971Z,4.53
2023-03-28T21:46:28.253Z,2.50
2023-03-28T21:48:59.204Z,4.70
2023-03-28T21:51:30.243Z,4.50
2023-03-28T21:54:01.461Z,4.70
2023-03-28T21:56:32.746Z,4.97
2023-03-28T21:59:06.874Z,3.90
2023-03-28T22:01:37.943Z,3.80
2023-03-28T22:04:08.935Z,3.10
2023-03-28T22:06:39.901Z,5.63
2023-03-28T22:09:10.936Z,5.83
2023-03-28T22:11:42.451Z,5.93
2023-03-28T22:14:18.605Z,3.37
2023-03-28T22:16:54.854Z,7.80
2023-03-28T22:19:30.891Z,5.27
2023-03-28T22:22:02.552Z,3.63
2023-03-28T22:24:34.372Z,4.50
2023-03-28T22:27:08.371Z,4.07
2023-03-28T22:29:41.930Z,4.20
2023-03-28T22:32:13.073Z,4.80
2023-03-28T22:34:45.298Z,3.43
2023-03-28T22:37:16.894Z,5.67
2023-03-28T22:39:49.229Z,5.13
2023-03-28T22:42:20.245Z,4.50
2023-03-28T22:44:56.938Z,3.90
2023-03-28T22:47:30.222Z,4.90
2023-03-28T22:50:01.287Z,5.03
2023-03-28T22:52:32.865Z,4.50
2023-03-28T22:55:04.721Z,4.40
2023-03-28T22:57:38.834Z,5.97
2023-03-28T23:00:15.346Z,5.93
2023-03-28T23:02:46.813Z,4.20
2023-03-28T23:05:17.950Z,3.90
2023-03-28T23:07:53.332Z,5.77
2023-03-28T23:10:24.471Z,3.70
2023-03-28T23:12:55.288Z,3.30
2023-03-28T23:15:29.087Z,3.60
2023-03-28T23:18:00.453Z,3.77
2023-03-28T23:20:31.462Z,4.17
2023-03-28T23:23:02.696Z,4.50
2023-03-28T23:25:39.167Z,4.90
2023-03-28T23:28:10.156Z,4.10
2023-03-28T23:30:44.247Z,6.23
2023-03-28T23:33:18.528Z,3.60
2023-03-28T23:35:49.955Z,3.77
2023-03-28T23:38:20.790Z,4.80
2023-03-28T23:40:51.725Z,3.90
2023-03-28T23:43:24.662Z,3.90
2023-03-28T23:45:58.441Z,3.93
2023-03-28T23:48:29.500Z,3.73
2023-03-28T23:51:02.225Z,6.20
2023-03-28T23:53:33.677Z,4.33
2023-03-28T23:56:05.668Z,3.10
2023-03-28T23:58:37.151Z,5.10
